Time;durP1;ratioP1;P1;durP2;ratioP2;P2;SDS_P1;SDS_P2;PMS_P1;PMS_P2;Temp;Humidity;BMP_temperature;BMP_pressure;BME280_temperature;BME280_humidity;BME280_pressure;Samples;Min_cycle;Max_cycle;Signal;HPM_P1;HPM_P2
2021/05/01 00:00:55;;;;;;;21.98;11.23;;;;;;;13.29;98.10;96638.81;4945770;28;20027;-66
2021/05/01 00:03:20;;;;;;;20.48;11.32;;;;;;;14.66;98.65;96850.31;4947832;28;20545;-66
2021/05/01 00:05:46;;;;;;;19.75;10.30;;;;;;;14.46;99.41;96829.66;4948203;28;20043;-65
2021/05/01 00:08:11;;;;;;;20.40;10.65;;;;;;;13.76;100.00;96746.13;4947988;29;20512;-65
2021/05/01 00:10:36;;;;;;;21.98;11.02;;;;;;;14.41;100.00;96844.00;4947333;28;20066;-64
2021/05/01 00:13:02;;;;;;;19.58;9.93;;;;;;;14.59;98.75;96830.84;4947970;28;20454;-65
2021/05/01 00:15:27;;;;;;;19.15;9.48;;;;;;;14.67;97.15;96824.00;4947544;28;20034;-65
2021/05/01 00:17:53;;;;;;;17.98;10.45;;;;;;;14.64;97.19;96825.63;4947871;28;20035;-65
2021/05/01 00:20:18;;;;;;;24.77;10.00;;;;;;;14.63;97.43;96828.81;4945366;29;20023;-65
2021/05/01 00:22:44;;;;;;;20.52;9.63;;;;;;;14.64;97.14;96827.63;4946257;29;20049;-65
2021/05/01 00:25:09;;;;;;;20.20;10.18;;;;;;;14.56;97.51;96831.59;4947553;28;20031;-65
2021/05/01 00:27:35;;;;;;;18.92;9.45;;;;;;;14.52;97.84;96837.22;4947818;28;20043;-67
2021/05/01 00:30:01;;;;;;;24.38;10.50;;;;;;;13.60;98.35;96722.28;4946642;28;20026;-65
2021/05/01 00:32:26;;;;;;;20.80;10.63;;;;;;;14.34;98.85;96838.41;4947381;28;20063;-66
2021/05/01 00:34:51;;;;;;;18.17;12.10;;;;;;;14.26;100.00;96847.97;4947868;29;20026;-65
2021/05/01 00:37:17;;;;;;;17.02;11.13;;;;;;;14.33;100.00;96839.63;4947569;29;20359;-66
2021/05/01 00:39:42;;;;;;;21.67;11.35;;;;;;;14.34;100.00;96843.97;4948248;28;20031;-65
2021/05/01 00:42:08;;;;;;;26.45;12.73;;;;;;;14.00;100.00;96795.44;4947185;28;20086;-67
2021/05/01 00:44:33;;;;;;;21.90;12.13;;;;;;;14.33;100.00;96847.97;4948174;28;20070;-66
2021/05/01 00:46:59;;;;;;;23.83;11.80;;;;;;;13.41;99.47;96675.34;4947626;28;20035;-66
2021/05/01 00:49:24;;;;;;;22.90;12.63;;;;;;;14.42;98.98;96824.09;4946000;28;20035;-67
2021/05/01 00:51:49;;;;;;;26.08;11.57;;;;;;;14.39;99.59;96827.66;4947641;28;20113;-67
2021/05/01 00:54:15;;;;;;;18.80;11.20;;;;;;;14.30;99.11;96827.28;4947068;28;20066;-67
2021/05/01 00:56:41;;;;;;;20.20;11.38;;;;;;;13.90;99.24;96801.78;4945507;29;20179;-66
2021/05/01 00:59:07;;;;;;;29.98;11.88;;;;;;;14.34;97.87;96827.25;4946233;28;20429;-66
2021/05/01 01:01:32;;;;;;;22.50;11.70;;;;;;;14.28;97.78;96837.22;4947781;28;20031;-65
2021/05/01 01:03:57;;;;;;;21.10;10.70;;;;;;;13.77;97.93;96776.34;4946683;28;20050;-66
2021/05/01 01:06:23;;;;;;;18.65;11.65;;;;;;;13.56;98.05;96749.28;4947130;28;20031;-66
2021/05/01 01:08:48;;;;;;;19.35;11.88;;;;;;;13.76;98.63;96815.72;4936657;28;20532;-66
2021/05/01 01:11:14;;;;;;;19.08;12.32;;;;;;;14.11;98.89;96849.97;4925932;29;20039;-67
2021/05/01 01:13:40;;;;;;;18.23;11.85;;;;;;;14.13;100.00;96841.19;4942632;29;20035;-66
2021/05/01 01:16:06;;;;;;;23.60;11.63;;;;;;;13.74;100.00;96787.50;4926292;29;20577;-65
2021/05/01 01:18:32;;;;;;;22.05;12.20;;;;;;;14.06;100.00;96830.03;4926713;29;20039;-66
2021/05/01 01:21:00;;;;;;;23.25;12.02;;;;;;;14.19;99.71;96836.81;4942083;29;20110;-66
2021/05/01 01:23:26;;;;;;;19.27;11.00;;;;;;;13.99;99.14;96818.91;4928207;29;20032;-66
2021/05/01 01:25:51;;;;;;;23.75;11.60;;;;;;;14.14;99.23;96840.00;4925808;29;20094;-65
2021/05/01 01:28:18;;;;;;;18.08;11.25;;;;;;;14.11;100.00;96846.38;4927932;29;20036;-66
2021/05/01 01:30:43;;;;;;;22.42;11.48;;;;;;;14.05;98.82;96825.69;4927192;29;20040;-66
2021/05/01 01:33:10;;;;;;;18.20;11.65;;;;;;;14.17;99.95;96844.75;4927788;29;20028;-66
2021/05/01 01:35:38;;;;;;;20.45;10.57;;;;;;;14.11;100.00;96836.03;4925629;29;20047;-67
2021/05/01 01:38:04;;;;;;;22.63;10.13;;;;;;;13.55;100.00;96764.41;4927977;29;20090;-67
2021/05/01 01:40:30;;;;;;;20.48;10.73;;;;;;;14.14;100.00;96826.88;4927294;29;20036;-66
2021/05/01 01:42:56;;;;;;;15.32;10.23;;;;;;;13.84;100.00;96781.91;4927387;29;20038;-66
2021/05/01 01:45:26;;;;;;;19.27;9.10;;;;;;;14.23;99.71;96826.44;4927146;29;20047;-66
2021/05/01 01:47:52;;;;;;;19.08;9.50;;;;;;;14.04;100.00;96818.50;4941989;29;20063;-66
2021/05/01 01:50:18;;;;;;;22.00;9.48;;;;;;;12.34;99.04;96521.16;4927221;29;20046;-66
2021/05/01 01:52:44;;;;;;;19.33;8.80;;;;;;;14.03;99.93;96795.44;4925825;29;20143;-66
2021/05/01 01:55:12;;;;;;;18.95;8.77;;;;;;;14.17;99.30;96814.13;4927074;29;20048;-66
2021/05/01 01:57:38;;;;;;;23.00;9.68;;;;;;;14.26;98.93;96820.09;4927361;29;20122;-66
2021/05/01 02:00:09;;;;;;;16.38;8.60;;;;;;;14.25;97.33;96818.53;4926866;29;20044;-66
2021/05/01 02:02:34;;;;;;;18.98;8.18;;;;;;;13.83;97.66;96771.97;4927043;29;20055;-66
2021/05/01 02:05:00;;;;;;;24.05;9.20;;;;;;;13.92;98.55;96793.84;4925705;29;20158;-66
2021/05/01 02:07:25;;;;;;;16.60;8.50;;;;;;;14.07;99.02;96828.88;4925303;29;20054;-66
2021/05/01 02:09:51;;;;;;;18.73;9.48;;;;;;;14.11;99.01;96824.09;4925903;29;20071;-67
2021/05/01 02:12:16;;;;;;;17.67;8.93;;;;;;;14.05;99.37;96820.09;4927090;29;21371;-66
2021/05/01 02:14:41;;;;;;;20.98;10.15;;;;;;;14.04;99.09;96824.06;4926956;29;20149;-66
2021/05/01 02:17:07;;;;;;;16.85;9.68;;;;;;;13.74;99.19;96782.69;4926413;29;20094;-65
2021/05/01 02:19:33;;;;;;;19.73;9.38;;;;;;;14.09;97.90;96826.47;4925463;29;20156;-66
2021/05/01 02:21:58;;;;;;;19.33;9.20;;;;;;;14.05;97.89;96834.03;4926437;29;20035;-66
2021/05/01 02:24:23;;;;;;;19.95;9.60;;;;;;;13.42;98.96;96765.19;4940924;28;20040;-66
2021/05/01 02:26:49;;;;;;;16.90;9.95;;;;;;;13.92;98.64;96832.84;4924733;29;20430;-66
2021/05/01 02:29:14;;;;;;;20.23;11.63;;;;;;;13.79;98.54;96812.94;4927542;29;20034;-65
2021/05/01 02:31:40;;;;;;;18.23;10.10;;;;;;;13.96;99.27;96833.66;4926450;29;20039;-66
2021/05/01 02:34:05;;;;;;;16.65;10.35;;;;;;;11.66;98.04;96467.47;4926993;29;20040;-67
2021/05/01 02:36:31;;;;;;;20.50;10.60;;;;;;;13.98;99.88;96826.47;4926334;29;20040;-66
2021/05/01 02:38:56;;;;;;;16.48;10.15;;;;;;;13.97;100.00;96829.66;4926998;29;20032;-66
2021/05/01 02:41:23;;;;;;;20.55;11.13;;;;;;;13.37;100.00;96734.97;4926151;29;20039;-66
2021/05/01 02:43:49;;;;;;;18.27;9.93;;;;;;;13.80;100.00;96791.47;4925548;29;20051;-66
2021/05/01 02:46:15;;;;;;;21.42;9.95;;;;;;;13.75;100.00;96772.38;4926500;29;20032;-67
2021/05/01 02:48:40;;;;;;;19.58;9.18;;;;;;;13.92;98.30;96777.13;4927017;29;20031;-66
2021/05/01 02:51:06;;;;;;;18.75;8.57;;;;;;;13.83;97.37;96779.53;4926298;29;20039;-67
2021/05/01 02:53:31;;;;;;;19.08;8.93;;;;;;;14.24;95.87;96822.50;4926540;29;20056;-68
2021/05/01 02:55:57;;;;;;;15.02;9.00;;;;;;;14.27;96.20;96844.00;4940453;29;20036;-66
2021/05/01 02:58:24;;;;;;;15.52;10.27;;;;;;;14.30;95.96;96826.50;4926637;29;20044;-65
2021/05/01 03:00:49;;;;;;;20.45;10.57;;;;;;;14.17;95.57;96830.84;4926060;29;20511;-67
2021/05/01 03:03:14;;;;;;;19.92;11.10;;;;;;;14.11;97.17;96835.22;4927264;29;20118;-66
2021/05/01 03:05:40;;;;;;;23.85;14.65;;;;;;;14.12;96.77;96843.19;4926400;29;20042;-67
2021/05/01 03:08:05;;;;;;;23.00;12.65;;;;;;;13.79;97.71;96795.44;4924937;29;20039;-66
2021/05/01 03:10:31;;;;;;;22.27;11.88;;;;;;;14.06;98.40;96827.25;4940244;29;20566;-66
2021/05/01 03:12:57;;;;;;;27.08;14.43;;;;;;;13.82;98.76;96791.84;4926200;29;20032;-66
2021/05/01 03:15:24;;;;;;;31.00;18.30;;;;;;;14.16;97.09;96830.06;4924101;29;20045;-64
2021/05/01 03:17:49;;;;;;;39.47;24.98;;;;;;;13.68;96.64;96765.63;4940725;29;20032;-65
2021/05/01 03:20:16;;;;;;;44.05;22.90;;;;;;;14.18;96.68;96829.66;4926219;29;20051;-65
2021/05/01 03:22:42;;;;;;;37.53;21.10;;;;;;;14.07;97.25;96826.09;4926573;29;20531;-65
2021/05/01 03:25:10;;;;;;;34.35;18.00;;;;;;;13.47;98.20;96729.41;4940295;29;20534;-65
2021/05/01 03:27:37;;;;;;;26.27;11.23;;;;;;;14.08;98.35;96836.81;4926134;29;20420;-65
2021/05/01 03:30:05;;;;;;;20.83;11.02;;;;;;;14.10;97.74;96828.06;4924184;29;20488;-66
2021/05/01 03:32:31;;;;;;;19.38;10.60;;;;;;;14.04;97.43;96826.84;4925805;29;20039;-65
2021/05/01 03:34:56;;;;;;;23.80;11.68;;;;;;;14.03;98.23;96828.06;4940661;28;20044;-65
2021/05/01 03:37:22;;;;;;;22.55;10.80;;;;;;;14.06;97.92;96827.25;4929371;29;20027;-65
2021/05/01 03:39:48;;;;;;;17.83;10.05;;;;;;;13.98;97.77;96811.75;4930223;29;20092;-65
2021/05/01 03:42:13;;;;;;;21.60;10.50;;;;;;;14.10;98.02;96844.78;4929281;29;20040;-66
2021/05/01 03:44:39;;;;;;;24.70;12.55;;;;;;;14.14;98.29;96840.00;4929813;29;20044;-65
2021/05/01 03:47:04;;;;;;;29.58;15.05;;;;;;;14.10;97.40;96822.50;4929174;29;20090;-66
2021/05/01 03:49:30;;;;;;;33.03;15.32;;;;;;;14.23;98.23;96834.81;4929379;29;20043;-65
2021/05/01 03:51:55;;;;;;;28.88;14.00;;;;;;;14.36;96.92;96836.84;4928822;29;20035;-66
2021/05/01 03:54:20;;;;;;;23.95;13.35;;;;;;;14.30;96.85;96815.34;4928990;29;20067;-66
2021/05/01 03:56:46;;;;;;;24.85;12.15;;;;;;;14.19;95.83;96797.81;4928917;29;20420;-64
2021/05/01 03:59:12;;;;;;;17.30;9.73;;;;;;;14.54;94.30;96826.44;4928210;29;20060;-64
2021/05/01 04:01:38;;;;;;;32.08;14.75;;;;;;;14.68;94.09;96853.50;4928205;29;20441;-65
2021/05/01 04:04:04;;;;;;;27.75;14.70;;;;;;;14.45;93.78;96789.84;4944217;29;20134;-67
2021/05/01 04:06:29;;;;;;;31.52;15.88;;;;;;;14.64;95.27;96858.28;4927562;29;20036;-65
2021/05/01 04:08:55;;;;;;;25.33;15.35;;;;;;;14.44;97.24;96859.91;4929623;29;20047;-67
2021/05/01 04:11:21;;;;;;;27.92;14.73;;;;;;;14.67;96.46;96851.91;4928495;29;20123;-65
2021/05/01 04:13:49;;;;;;;20.83;11.23;;;;;;;14.02;95.57;96732.56;4943651;29;20040;-66
2021/05/01 04:16:15;;;;;;;17.73;10.20;;;;;;;14.74;95.17;96851.91;4928893;29;20114;-66
2021/05/01 04:18:41;;;;;;;21.33;9.98;;;;;;;14.82;94.87;96836.75;4929437;29;20044;-67
2021/05/01 04:21:07;;;;;;;20.80;9.50;;;;;;;14.79;94.10;96838.34;4927158;29;20035;-67
2021/05/01 04:23:33;;;;;;;17.67;9.35;;;;;;;14.74;93.43;96796.94;4929180;29;20028;-67
2021/05/01 04:25:59;;;;;;;15.70;8.57;;;;;;;15.27;92.27;96846.16;4928524;29;20119;-66
2021/05/01 04:28:25;;;;;;;19.38;8.80;;;;;;;15.39;92.12;96849.31;4928554;29;20502;-65
2021/05/01 04:30:50;;;;;;;20.55;9.00;;;;;;;14.96;91.64;96764.16;4926940;29;20043;-66
2021/05/01 04:33:16;;;;;;;18.60;10.82;;;;;;;15.61;91.20;96861.94;4928687;29;20044;-66
2021/05/01 04:35:41;;;;;;;18.38;10.35;;;;;;;15.24;89.47;96785.56;4928150;29;20044;-65
2021/05/01 04:38:07;;;;;;;19.00;10.10;;;;;;;15.74;89.61;96865.06;4928800;29;20091;-66
2021/05/01 04:40:32;;;;;;;22.05;11.15;;;;;;;15.11;87.79;96737.81;4942553;29;20043;-66
2021/05/01 04:43:02;;;;;;;42.13;22.70;;;;;;;15.66;87.01;96811.25;4943600;29;20035;-66
2021/05/01 04:45:28;;;;;;;24.85;13.60;;;;;;;16.06;86.93;96872.03;4942634;29;20199;-66
2021/05/01 04:47:54;;;;;;;50.72;30.35;;;;;;;16.21;86.85;96867.94;4926789;29;20419;-66
2021/05/01 04:50:20;;;;;;;30.63;17.70;;;;;;;16.36;86.76;96874.97;4928092;29;20031;-66
2021/05/01 04:52:45;;;;;;;26.65;12.18;;;;;;;16.57;85.52;96874.03;4928142;29;20090;-66
2021/05/01 04:55:14;;;;;;;22.05;9.80;;;;;;;16.38;85.81;96827.84;4927803;29;20503;-68
2021/05/01 04:57:48;;;;;;;17.90;10.20;;;;;;;16.35;82.80;96806.31;4928206;29;20039;-66
2021/05/01 05:00:16;;;;;;;23.67;13.18;;;;;;;16.98;82.67;96882.41;4928228;29;20043;-65
2021/05/01 05:02:42;;;;;;;21.15;12.57;;;;;;;17.02;81.43;96872.00;4928620;29;20070;-64
2021/05/01 05:05:09;;;;;;;26.42;16.20;;;;;;;16.41;81.28;96759.13;4928155;29;20507;-65
2021/05/01 05:07:34;;;;;;;44.47;21.17;;;;;;;16.52;80.96;96760.63;4928184;29;20030;-67
2021/05/01 05:10:00;;;;;;;39.72;18.25;;;;;;;15.37;81.60;96561.41;4928464;29;20035;-65
2021/05/01 05:12:26;;;;;;;29.83;17.25;;;;;;;17.39;80.64;96867.16;4927905;29;20039;-65
2021/05/01 05:14:51;;;;;;;34.30;20.05;;;;;;;17.05;80.54;96798.38;4927165;29;20043;-65
2021/05/01 05:17:17;;;;;;;32.55;20.02;;;;;;;17.63;80.08;96873.66;4927327;29;20070;-66
2021/05/01 05:19:43;;;;;;;34.80;20.98;;;;;;;17.20;78.01;96760.63;4926505;29;20102;-67
2021/05/01 05:22:08;;;;;;;43.10;24.50;;;;;;;17.88;78.46;96854.50;4926185;29;20397;-66
2021/05/01 05:24:36;;;;;;;29.52;15.35;;;;;;;17.68;78.50;96831.97;4927808;29;20042;-66
2021/05/01 05:27:01;;;;;;;45.15;20.63;;;;;;;17.48;77.49;96754.66;4927257;29;20537;-66
2021/05/01 05:29:27;;;;;;;32.90;15.95;;;;;;;18.21;78.59;96853.59;4927780;29;20067;-66
2021/05/01 05:31:52;;;;;;;27.77;13.38;;;;;;;18.05;78.49;96811.41;4927141;29;20070;-68
2021/05/01 05:34:18;;;;;;;19.63;10.90;;;;;;;17.90;77.60;96759.59;4928021;29;20542;-67
2021/05/01 05:36:43;;;;;;;21.58;11.68;;;;;;;18.76;76.94;96870.72;4941431;29;20036;-66
2021/05/01 05:39:09;;;;;;;25.17;12.65;;;;;;;18.51;78.44;96845.09;4927432;29;20122;-65
2021/05/01 05:41:34;;;;;;;21.48;10.38;;;;;;;18.80;76.41;96885.50;4925253;29;20031;-65
2021/05/01 05:44:00;;;;;;;27.73;12.60;;;;;;;18.56;75.76;96841.03;4925384;29;20119;-66
2021/05/01 05:46:27;;;;;;;23.88;11.85;;;;;;;17.16;79.75;96743.06;4924457;29;20114;-66
2021/05/01 05:48:52;;;;;;;20.65;10.00;;;;;;;18.57;78.99;96893.13;4925047;29;20028;-70
2021/05/01 05:51:18;;;;;;;15.50;9.82;;;;;;;18.47;76.30;96838.78;4922409;29;20475;-67
2021/05/01 05:53:44;;;;;;;18.27;8.30;;;;;;;19.07;73.78;96869.34;4925799;29;20511;-68
2021/05/01 05:56:09;;;;;;;19.98;9.60;;;;;;;17.93;75.58;96792.38;4923476;29;20107;-70
2021/05/01 05:58:35;;;;;;;19.02;10.38;;;;;;;19.06;75.72;96875.41;4906350;29;20036;-70
2021/05/01 06:01:01;;;;;;;17.15;9.40;;;;;;;19.30;73.79;96879.78;4922533;29;20080;-71
2021/05/01 06:03:28;;;;;;;18.45;9.38;;;;;;;18.98;75.13;96855.09;4915005;29;20075;-64
2021/05/01 06:06:03;;;;;;;19.30;8.88;;;;;;;19.32;75.79;96880.13;4923351;29;20036;-69
2021/05/01 06:08:29;;;;;;;30.27;13.20;;;;;;;19.22;75.06;96879.06;4926860;29;20035;-66
2021/05/01 06:10:57;;;;;;;19.02;11.55;;;;;;;19.05;73.45;96812.81;4911581;29;20099;-64
2021/05/01 06:13:24;;;;;;;16.55;7.82;;;;;;;19.93;71.24;96886.06;4907633;29;20122;-70
2021/05/01 06:15:50;;;;;;;16.23;8.40;;;;;;;20.27;70.79;96880.88;4907746;29;20040;-69
2021/05/01 06:18:21;;;;;;;16.85;9.07;;;;;;;17.78;74.20;96592.09;4910604;29;20114;-70
2021/05/01 06:20:47;;;;;;;23.48;9.40;;;;;;;19.79;73.50;96838.59;4941212;28;20039;-69
2021/05/01 06:23:12;;;;;;;16.25;9.25;;;;;;;19.27;72.42;96729.72;4926345;29;20061;-73
2021/05/01 06:25:38;;;;;;;18.08;8.70;;;;;;;19.96;73.16;96893.63;4925803;29;20039;-68
2021/05/01 06:28:05;;;;;;;18.73;8.95;;;;;;;20.10;73.20;96899.75;4926367;29;20110;-69
2021/05/01 06:30:30;;;;;;;19.55;8.57;;;;;;;20.48;71.14;96898.06;4925662;29;20118;-69
2021/05/01 06:32:59;;;;;;;12.48;8.15;;;;;;;20.09;71.54;96903.00;4926556;29;20539;-68
2021/05/01 06:35:25;;;;;;;21.80;9.68;;;;;;;20.58;70.76;96913.13;4940026;29;20062;-68
2021/05/01 06:37:52;;;;;;;18.73;9.30;;;;;;;20.99;69.68;96913.31;4926666;29;20174;-70
2021/05/01 06:40:22;;;;;;;22.05;8.55;;;;;;;21.41;66.75;96905.72;4924377;29;20158;-69
2021/05/01 06:42:57;;;;;;;17.05;9.45;;;;;;;20.96;64.83;96798.69;4926494;29;20042;-68
2021/05/01 06:45:23;;;;;;;18.90;9.40;;;;;;;22.14;64.20;96905.63;4925433;29;20039;-71
2021/05/01 06:48:05;;;;;;;20.02;9.13;;;;;;;22.57;63.83;96922.06;4925385;29;20042;-70
2021/05/01 06:50:32;;;;;;;21.23;11.88;;;;;;;22.89;61.25;96905.63;4919958;29;20051;-69
2021/05/01 06:52:58;;;;;;;21.83;11.88;;;;;;;23.13;62.35;96908.88;4906872;29;20119;-69
2021/05/01 06:55:26;;;;;;;17.90;9.18;;;;;;;23.29;61.33;96900.25;4938581;29;20117;-69
2021/05/01 06:57:54;;;;;;;17.25;9.63;;;;;;;22.76;60.26;96755.19;4930913;28;20027;-67
2021/05/01 07:00:24;;;;;;;18.38;12.00;;;;;;;23.13;56.51;96784.50;4925085;29;20498;-66
2021/05/01 07:02:55;;;;;;;19.98;13.93;;;;;;;23.85;54.95;96886.88;4925854;29;20035;-68
2021/05/01 07:05:23;;;;;;;30.13;15.65;;;;;;;24.19;56.50;96883.97;4924208;29;20043;-67
2021/05/01 07:07:48;;;;;;;22.65;15.00;;;;;;;24.03;54.05;96813.44;4923584;29;20142;-67
2021/05/01 07:10:15;;;;;;;28.83;15.48;;;;;;;24.68;53.46;96887.69;4923157;29;20732;-67
2021/05/01 07:12:41;;;;;;;25.40;16.38;;;;;;;24.85;53.35;96877.66;4915506;29;20063;-67
2021/05/01 07:15:18;;;;;;;19.67;14.32;;;;;;;23.50;56.10;96859.91;4910855;29;20044;-70
2021/05/01 07:17:53;;;;;;;23.40;12.98;;;;;;;22.51;56.44;96714.91;4926995;29;20477;-59
2021/05/01 07:20:20;;;;;;;17.33;10.00;;;;;;;24.32;53.73;96864.84;4926730;29;20130;-63
2021/05/01 07:22:49;;;;;;;21.50;12.95;;;;;;;24.11;55.96;96862.84;4929327;29;20526;-65
2021/05/01 07:25:15;;;;;;;15.13;10.50;;;;;;;23.77;55.28;96874.25;4928690;29;20043;-62
2021/05/01 07:27:54;;;;;;;18.15;9.80;;;;;;;23.72;54.36;96872.03;4928629;29;20030;-68
2021/05/01 07:30:22;;;;;;;20.25;9.23;;;;;;;24.19;53.15;96871.84;4927827;29;20095;-68
2021/05/01 07:32:55;;;;;;;15.43;9.48;;;;;;;24.06;52.73;96866.28;4929221;29;20042;-68
2021/05/01 07:35:24;;;;;;;14.57;8.65;;;;;;;23.85;49.41;96886.88;4927744;29;20090;-69
2021/05/01 07:37:53;;;;;;;16.58;9.38;;;;;;;23.73;52.03;96870.75;4929673;29;20511;-69
2021/05/01 07:40:28;;;;;;;19.35;9.88;;;;;;;22.77;52.34;96722.06;4929430;29;20031;-69
2021/05/01 07:42:55;;;;;;;23.90;10.45;;;;;;;24.09;50.48;96879.50;4929568;29;20059;-69
2021/05/01 07:45:24;;;;;;;17.77;9.55;;;;;;;24.57;51.71;96878.78;4928829;29;20047;-69
2021/05/01 07:47:55;;;;;;;20.38;10.02;;;;;;;24.81;51.71;96851.50;4929557;29;20118;-69
2021/05/01 07:50:25;;;;;;;17.60;10.82;;;;;;;24.74;51.24;96817.81;4927450;29;20043;-70
2021/05/01 07:52:52;;;;;;;20.50;10.30;;;;;;;24.83;50.35;96843.31;4928880;29;20066;-70
2021/05/01 07:55:18;;;;;;;19.30;10.32;;;;;;;25.36;48.62;96885.63;4928862;29;20051;-70
2021/05/01 07:57:43;;;;;;;17.60;9.95;;;;;;;24.67;48.20;96874.78;4929513;29;20043;-70
2021/05/01 08:00:09;;;;;;;24.05;9.10;;;;;;;23.93;47.09;96707.09;4928924;29;20734;-70
2021/05/01 08:02:35;;;;;;;17.08;9.52;;;;;;;24.90;46.19;96862.88;4929153;29;20139;-70
2021/05/01 08:05:03;;;;;;;17.45;9.52;;;;;;;23.52;47.69;96783.91;4929009;29;20541;-69
2021/05/01 08:07:29;;;;;;;17.05;9.80;;;;;;;24.77;50.26;96861.44;4929157;29;20119;-69
2021/05/01 08:09:54;;;;;;;30.75;16.23;;;;;;;25.38;50.11;96854.75;4929087;29;20555;-68
2021/05/01 08:12:20;;;;;;;27.15;12.80;;;;;;;25.88;51.58;96865.41;4928341;29;20529;-67
2021/05/01 08:14:45;;;;;;;27.48;14.88;;;;;;;26.01;50.83;96868.91;4929282;29;20038;-68
2021/05/01 08:17:11;;;;;;;27.48;14.43;;;;;;;26.02;48.52;96865.59;4928690;29;20738;-67
2021/05/01 08:19:36;;;;;;;28.95;12.45;;;;;;;25.35;47.42;96838.69;4929000;29;20027;-69
2021/05/01 08:22:02;;;;;;;23.65;11.48;;;;;;;25.35;46.49;96821.66;4927660;29;20031;-69
2021/05/01 08:24:27;;;;;;;23.98;10.60;;;;;;;26.53;44.09;96868.41;4928995;29;20187;-69
2021/05/01 08:26:53;;;;;;;18.23;10.65;;;;;;;26.73;43.42;96862.22;4928116;29;20141;-68
2021/05/01 08:29:18;;;;;;;33.88;14.38;;;;;;;26.52;43.96;96864.03;4928487;29;20415;-69
2021/05/01 08:31:43;;;;;;;22.55;9.68;;;;;;;26.34;43.28;96866.91;4926703;29;20039;-70
2021/05/01 08:34:09;;;;;;;31.95;18.48;;;;;;;25.84;44.19;96867.66;4928403;29;20048;-70
2021/05/01 08:36:35;;;;;;;27.10;16.58;;;;;;;25.37;44.32;96916.34;4927023;29;20036;-70
2021/05/01 08:39:00;;;;;;;40.85;28.05;;;;;;;24.75;44.03;96793.91;4928665;29;20479;-71
2021/05/01 08:41:25;;;;;;;18.42;8.98;;;;;;;24.96;43.54;96826.19;4928231;29;20511;-68
2021/05/01 08:43:52;;;;;;;20.25;8.75;;;;;;;25.45;43.65;96855.22;4929041;29;20419;-69
2021/05/01 08:46:22;;;;;;;20.42;8.18;;;;;;;25.61;42.86;96863.41;4926712;29;20178;-69
2021/05/01 08:48:48;;;;;;;11.23;8.00;;;;;;;25.54;42.83;96852.41;4929312;29;20252;-69
2021/05/01 08:51:15;;;;;;;23.40;9.25;;;;;;;25.98;42.26;96830.09;4928447;29;20044;-69
2021/05/01 08:53:41;;;;;;;16.90;8.07;;;;;;;26.69;41.85;96842.47;4928186;29;20476;-69
2021/05/01 08:56:07;;;;;;;22.25;9.25;;;;;;;26.65;41.27;96739.56;4927719;29;20046;-70
2021/05/01 08:58:32;;;;;;;17.55;8.15;;;;;;;26.73;40.38;96801.25;4928338;29;20403;-70
2021/05/01 09:00:59;;;;;;;16.05;9.50;;;;;;;27.39;40.21;96806.81;4927675;29;20052;-69
2021/05/01 09:03:25;;;;;;;13.50;9.65;;;;;;;27.25;40.61;96836.75;4928438;29;20039;-70
2021/05/01 09:05:52;;;;;;;18.58;9.85;;;;;;;27.00;41.18;96831.53;4928166;29;20098;-69
2021/05/01 09:08:19;;;;;;;18.13;9.30;;;;;;;26.15;42.52;96834.16;4926600;29;20454;-68
2021/05/01 09:10:47;;;;;;;15.00;9.80;;;;;;;25.36;43.07;96738.16;4927875;29;20039;-69
2021/05/01 09:13:18;;;;;;;20.55;8.90;;;;;;;25.95;42.42;96836.72;4927618;29;20035;-69
2021/05/01 09:16:03;;;;;;;15.32;8.20;;;;;;;23.77;42.82;96495.19;4925887;29;20046;-69
2021/05/01 09:18:47;;;;;;;20.55;9.68;;;;;;;26.16;44.96;96807.34;4926522;29;20130;-69
2021/05/01 09:21:20;;;;;;;18.98;9.43;;;;;;;26.80;43.45;96822.84;4942274;29;20606;-69
2021/05/01 09:23:46;;;;;;;16.73;9.50;;;;;;;26.40;42.26;96760.69;4928638;29;20067;-70
2021/05/01 09:26:12;;;;;;;17.25;9.25;;;;;;;27.12;43.24;96821.22;4925711;29;20032;-68
2021/05/01 09:28:45;;;;;;;20.17;11.50;;;;;;;27.28;43.60;96824.44;4927648;29;20042;-68
2021/05/01 09:31:13;;;;;;;20.80;10.52;;;;;;;27.27;42.99;96817.16;4927806;29;20522;-68
2021/05/01 09:33:39;;;;;;;14.27;9.48;;;;;;;27.01;44.21;96820.97;4926879;29;20375;-68
2021/05/01 09:36:16;;;;;;;14.88;9.70;;;;;;;27.24;44.34;96823.78;4925772;29;20047;-68
2021/05/01 09:38:46;;;;;;;17.75;9.45;;;;;;;27.86;42.72;96813.16;4927902;29;20040;-69
2021/05/01 09:41:23;;;;;;;16.35;9.45;;;;;;;27.93;41.28;96812.78;4927902;29;20427;-69
2021/05/01 09:43:55;;;;;;;17.50;9.10;;;;;;;27.57;41.26;96813.09;4927879;29;20408;-69
2021/05/01 09:46:20;;;;;;;14.65;8.88;;;;;;;27.46;42.11;96815.75;4926719;29;20040;-69
2021/05/01 09:49:21;;;;;;;13.75;8.30;;;;;;;27.71;41.19;96822.97;4927752;29;20066;-69
2021/05/01 09:52:13;;;;;;;20.15;9.45;;;;;;;27.60;40.86;96812.13;4924896;28;20083;-70
2021/05/01 09:54:44;;;;;;;22.30;9.27;;;;;;;26.94;42.25;96685.63;4923699;29;20614;-69
2021/05/01 09:57:15;;;;;;;19.52;8.68;;;;;;;27.91;41.36;96815.34;4925523;29;20035;-69
2021/05/01 09:59:42;;;;;;;18.52;9.20;;;;;;;28.71;39.36;96820.56;4927442;29;20048;-68
2021/05/01 10:02:12;;;;;;;16.08;8.65;;;;;;;27.69;39.70;96783.59;4925362;29;20419;-68
2021/05/01 10:04:39;;;;;;;11.60;8.32;;;;;;;27.78;39.09;96809.13;4926950;29;20482;-68
2021/05/01 10:07:11;;;;;;;14.13;8.25;;;;;;;27.90;39.63;96802.38;4926503;29;20054;-69
2021/05/01 10:09:42;;;;;;;21.00;9.90;;;;;;;27.21;41.14;96813.41;4941144;29;20431;-68
2021/05/01 10:12:14;;;;;;;21.67;10.73;;;;;;;27.81;39.92;96802.44;4926686;29;20525;-68
2021/05/01 10:14:48;;;;;;;18.85;8.38;;;;;;;27.16;41.19;96828.28;4926693;29;20036;-69
2021/05/01 10:17:16;;;;;;;17.80;8.63;;;;;;;27.88;39.47;96787.81;4926438;29;20036;-70
2021/05/01 10:19:51;;;;;;;17.85;9.13;;;;;;;26.65;39.23;96611.69;4926822;29;20082;-70
2021/05/01 10:22:37;;;;;;;16.90;9.93;;;;;;;27.40;40.76;96792.09;4926104;29;20134;-69
2021/05/01 10:25:17;;;;;;;19.30;8.80;;;;;;;28.25;38.86;96793.13;4926243;29;20039;-69
2021/05/01 10:27:48;;;;;;;16.73;8.85;;;;;;;26.55;38.51;96502.97;4926081;29;20035;-69
2021/05/01 10:30:37;;;;;;;14.18;8.40;;;;;;;28.29;38.93;96803.03;4926709;29;20662;-69
2021/05/01 10:33:31;;;;;;;16.88;8.40;;;;;;;27.71;38.62;96794.50;4926903;29;20036;-69
2021/05/01 10:36:16;;;;;;;11.88;8.30;;;;;;;27.15;40.86;96798.28;4925213;29;20046;-69
2021/05/01 10:38:42;;;;;;;16.05;8.65;;;;;;;26.90;39.77;96804.47;4927219;29;20863;-69
2021/05/01 10:41:15;;;;;;;18.48;9.57;;;;;;;26.14;40.26;96665.84;4926031;29;20575;-69
2021/05/01 10:43:48;;;;;;;17.33;9.00;;;;;;;26.70;41.25;96795.72;4926191;29;20523;-69
2021/05/01 10:46:20;;;;;;;19.25;8.90;;;;;;;26.67;40.83;96793.84;4926083;29;20570;-69
2021/05/01 10:48:47;;;;;;;16.05;8.38;;;;;;;26.93;41.74;96792.13;4926956;29;20055;-70
2021/05/01 10:51:24;;;;;;;24.40;10.27;;;;;;;26.99;44.20;96778.81;4926371;29;20090;-70
2021/05/01 10:54:26;;;;;;;20.05;11.75;;;;;;;27.85;41.47;96780.22;4926078;29;20059;-70
2021/05/01 10:56:54;;;;;;;25.58;13.13;;;;;;;26.48;43.12;96698.59;4903716;29;20063;-70
2021/05/01 10:59:23;;;;;;;23.70;11.63;;;;;;;27.36;42.63;96757.31;4922411;29;20052;-70
2021/05/01 11:01:51;;;;;;;19.38;9.25;;;;;;;28.10;40.58;96774.00;4926038;29;20434;-70
2021/05/01 11:04:19;;;;;;;23.65;10.18;;;;;;;27.27;40.97;96714.75;4926249;29;20558;-70
2021/05/01 11:06:50;;;;;;;19.20;8.00;;;;;;;28.38;39.89;96760.16;4925721;29;20131;-69
2021/05/01 11:09:34;;;;;;;22.13;11.95;;;;;;;28.08;39.45;96750.09;4926853;29;20106;-70
2021/05/01 11:12:03;;;;;;;19.27;9.43;;;;;;;27.35;39.30;96681.78;4925889;29;20491;-68
2021/05/01 11:14:30;;;;;;;24.35;12.13;;;;;;;28.02;40.97;96747.19;4924542;29;20156;-68
2021/05/01 11:17:15;;;;;;;15.40;8.90;;;;;;;27.88;40.25;96747.97;4925977;29;20043;-70
2021/05/01 11:19:46;;;;;;;18.25;8.82;;;;;;;28.15;40.22;96744.03;4926091;29;20039;-69
2021/05/01 11:22:20;;;;;;;18.30;8.75;;;;;;;28.87;39.56;96742.22;4939847;29;20035;-70